sensor_id;sensor_type;location;lat;lon;timestamp;P1;durP1;ratioP1;P2;durP2;ratioP2
80253;SDS011;69563;37.974;23.708;2023-05-10T00:01:47;6.32;;;2.70;;
80253;SDS011;69563;37.974;23.708;2023-05-10T00:04:13;5.95;;;2.90;;
80253;SDS011;69563;37.974;23.708;2023-05-10T00:06:39;4.72;;;2.60;;
80253;SDS011;69563;37.974;23.708;2023-05-10T00:09:05;6.40;;;2.63;;
80253;SDS011;69563;37.974;23.708;2023-05-10T00:11:31;7.20;;;2.95;;
80253;SDS011;69563;37.974;23.708;2023-05-10T00:13:56;4.35;;;2.47;;
80253;SDS011;69563;37.974;23.708;2023-05-10T00:16:22;6.88;;;3.20;;
80253;SDS011;69563;37.974;23.708;2023-05-10T00:18:48;5.88;;;3.03;;
80253;SDS011;69563;37.974;23.708;2023-05-10T00:21:13;4.68;;;2.75;;
80253;SDS011;69563;37.974;23.708;2023-05-10T00:23:39;4.25;;;2.67;;
80253;SDS011;69563;37.974;23.708;2023-05-10T00:26:05;5.10;;;2.90;;
80253;SDS011;69563;37.974;23.708;2023-05-10T00:28:31;6.65;;;3.08;;
80253;SDS011;69563;37.974;23.708;2023-05-10T00:30:56;5.72;;;2.80;;
80253;SDS011;69563;37.974;23.708;2023-05-10T00:33:22;4.78;;;2.65;;
80253;SDS011;69563;37.974;23.708;2023-05-10T00:35:48;5.38;;;2.90;;
80253;SDS011;69563;37.974;23.708;2023-05-10T00:38:13;5.47;;;2.85;;
80253;SDS011;69563;37.974;23.708;2023-05-10T00:40:39;6.40;;;2.90;;
80253;SDS011;69563;37.974;23.708;2023-05-10T00:43:05;7.30;;;2.90;;
80253;SDS011;69563;37.974;23.708;2023-05-10T00:45:32;7.43;;;2.97;;
80253;SDS011;69563;37.974;23.708;2023-05-10T00:48:00;5.28;;;2.70;;
80253;SDS011;69563;37.974;23.708;2023-05-10T00:50:28;5.80;;;2.60;;
80253;SDS011;69563;37.974;23.708;2023-05-10T00:52:55;6.57;;;2.78;;
80253;SDS011;69563;37.974;23.708;2023-05-10T00:55:22;5.35;;;2.60;;
80253;SDS011;69563;37.974;23.708;2023-05-10T00:57:48;6.07;;;2.60;;
80253;SDS011;69563;37.974;23.708;2023-05-10T01:00:14;6.47;;;2.55;;
80253;SDS011;69563;37.974;23.708;2023-05-10T01:02:46;5.38;;;2.53;;
80253;SDS011;69563;37.974;23.708;2023-05-10T01:05:12;6.50;;;2.80;;
80253;SDS011;69563;37.974;23.708;2023-05-10T01:07:39;6.35;;;2.83;;
80253;SDS011;69563;37.974;23.708;2023-05-10T01:10:05;3.85;;;2.20;;
80253;SDS011;69563;37.974;23.708;2023-05-10T01:12:32;4.10;;;2.30;;
80253;SDS011;69563;37.974;23.708;2023-05-10T01:15:01;6.32;;;2.72;;
80253;SDS011;69563;37.974;23.708;2023-05-10T01:17:28;5.20;;;2.40;;
80253;SDS011;69563;37.974;23.708;2023-05-10T01:19:55;4.97;;;2.25;;
80253;SDS011;69563;37.974;23.708;2023-05-10T01:25:15;5.43;;;2.30;;
80253;SDS011;69563;37.974;23.708;2023-05-10T01:33:39;5.22;;;2.20;;
80253;SDS011;69563;37.974;23.708;2023-05-10T01:36:32;5.65;;;2.40;;
80253;SDS011;69563;37.974;23.708;2023-05-10T01:41:41;8.57;;;2.60;;
80253;SDS011;69563;37.974;23.708;2023-05-10T01:46:53;5.65;;;2.10;;
80253;SDS011;69563;37.974;23.708;2023-05-10T01:49:31;6.90;;;2.22;;
80253;SDS011;69563;37.974;23.708;2023-05-10T01:52:04;3.97;;;2.00;;
80253;SDS011;69563;37.974;23.708;2023-05-10T01:54:33;4.57;;;2.13;;
80253;SDS011;69563;37.974;23.708;2023-05-10T01:57:03;5.00;;;2.28;;
80253;SDS011;69563;37.974;23.708;2023-05-10T01:59:34;6.90;;;2.10;;
80253;SDS011;69563;37.974;23.708;2023-05-10T02:02:01;4.25;;;2.10;;
80253;SDS011;69563;37.974;23.708;2023-05-10T02:04:29;6.43;;;2.42;;
80253;SDS011;69563;37.974;23.708;2023-05-10T02:06:56;5.60;;;1.90;;
80253;SDS011;69563;37.974;23.708;2023-05-10T02:09:23;5.82;;;2.30;;
80253;SDS011;69563;37.974;23.708;2023-05-10T02:11:50;5.28;;;1.80;;
80253;SDS011;69563;37.974;23.708;2023-05-10T02:14:17;4.80;;;2.10;;
80253;SDS011;69563;37.974;23.708;2023-05-10T02:16:44;4.90;;;2.00;;
80253;SDS011;69563;37.974;23.708;2023-05-10T02:19:12;6.35;;;2.10;;
80253;SDS011;69563;37.974;23.708;2023-05-10T02:21:39;5.22;;;1.95;;
80253;SDS011;69563;37.974;23.708;2023-05-10T02:24:06;4.88;;;1.90;;
80253;SDS011;69563;37.974;23.708;2023-05-10T02:26:34;4.55;;;1.90;;
80253;SDS011;69563;37.974;23.708;2023-05-10T02:29:01;5.75;;;2.08;;
80253;SDS011;69563;37.974;23.708;2023-05-10T02:31:28;4.45;;;1.63;;
80253;SDS011;69563;37.974;23.708;2023-05-10T02:33:57;7.60;;;2.00;;
80253;SDS011;69563;37.974;23.708;2023-05-10T02:36:23;4.75;;;1.90;;
80253;SDS011;69563;37.974;23.708;2023-05-10T02:38:52;5.68;;;2.05;;
80253;SDS011;69563;37.974;23.708;2023-05-10T02:41:19;3.33;;;1.67;;
80253;SDS011;69563;37.974;23.708;2023-05-10T02:43:50;4.07;;;1.70;;
80253;SDS011;69563;37.974;23.708;2023-05-10T02:46:17;4.15;;;1.70;;
80253;SDS011;69563;37.974;23.708;2023-05-10T02:48:43;4.43;;;1.80;;
80253;SDS011;69563;37.974;23.708;2023-05-10T02:51:09;5.75;;;2.10;;
80253;SDS011;69563;37.974;23.708;2023-05-10T02:53:40;4.43;;;1.77;;
80253;SDS011;69563;37.974;23.708;2023-05-10T02:56:12;5.97;;;1.92;;
80253;SDS011;69563;37.974;23.708;2023-05-10T02:58:40;5.45;;;2.30;;
80253;SDS011;69563;37.974;23.708;2023-05-10T03:01:06;4.97;;;1.80;;
80253;SDS011;69563;37.974;23.708;2023-05-10T03:03:32;6.47;;;2.00;;
80253;SDS011;69563;37.974;23.708;2023-05-10T03:05:58;4.35;;;1.70;;
80253;SDS011;69563;37.974;23.708;2023-05-10T03:08:24;5.22;;;1.88;;
80253;SDS011;69563;37.974;23.708;2023-05-10T03:10:55;6.07;;;1.80;;
80253;SDS011;69563;37.974;23.708;2023-05-10T03:16:21;5.40;;;1.88;;
80253;SDS011;69563;37.974;23.708;2023-05-10T03:21:52;4.28;;;1.67;;
80253;SDS011;69563;37.974;23.708;2023-05-10T03:24:23;3.95;;;1.70;;
80253;SDS011;69563;37.974;23.708;2023-05-10T03:26:52;4.43;;;1.63;;
80253;SDS011;69563;37.974;23.708;2023-05-10T03:29:22;4.07;;;1.50;;
80253;SDS011;69563;37.974;23.708;2023-05-10T03:31:50;4.18;;;1.65;;
80253;SDS011;69563;37.974;23.708;2023-05-10T03:34:16;4.20;;;1.55;;
80253;SDS011;69563;37.974;23.708;2023-05-10T03:36:48;4.90;;;1.60;;
80253;SDS011;69563;37.974;23.708;2023-05-10T03:39:13;5.15;;;1.70;;
80253;SDS011;69563;37.974;23.708;2023-05-10T03:41:39;5.60;;;1.80;;
80253;SDS011;69563;37.974;23.708;2023-05-10T03:44:05;5.15;;;1.80;;
80253;SDS011;69563;37.974;23.708;2023-05-10T03:46:30;3.95;;;1.60;;
80253;SDS011;69563;37.974;23.708;2023-05-10T03:48:56;4.93;;;1.73;;
80253;SDS011;69563;37.974;23.708;2023-05-10T03:51:21;5.30;;;1.60;;
80253;SDS011;69563;37.974;23.708;2023-05-10T03:53:47;3.40;;;1.40;;
80253;SDS011;69563;37.974;23.708;2023-05-10T03:56:13;3.97;;;1.45;;
80253;SDS011;69563;37.974;23.708;2023-05-10T03:58:38;3.95;;;1.60;;
80253;SDS011;69563;37.974;23.708;2023-05-10T04:01:04;4.82;;;1.85;;
80253;SDS011;69563;37.974;23.708;2023-05-10T04:03:30;3.60;;;1.50;;
80253;SDS011;69563;37.974;23.708;2023-05-10T04:05:59;4.07;;;1.63;;
80253;SDS011;69563;37.974;23.708;2023-05-10T04:08:26;4.05;;;1.55;;
80253;SDS011;69563;37.974;23.708;2023-05-10T04:10:52;3.55;;;1.80;;
80253;SDS011;69563;37.974;23.708;2023-05-10T04:13:17;5.03;;;1.80;;
80253;SDS011;69563;37.974;23.708;2023-05-10T04:15:43;4.47;;;1.60;;
80253;SDS011;69563;37.974;23.708;2023-05-10T04:18:09;5.80;;;1.70;;
80253;SDS011;69563;37.974;23.708;2023-05-10T04:20:35;6.88;;;1.67;;
80253;SDS011;69563;37.974;23.708;2023-05-10T04:23:01;5.40;;;1.92;;
80253;SDS011;69563;37.974;23.708;2023-05-10T04:25:26;6.85;;;1.70;;
80253;SDS011;69563;37.974;23.708;2023-05-10T04:27:52;8.02;;;2.00;;
80253;SDS011;69563;37.974;23.708;2023-05-10T04:30:18;12.90;;;2.05;;
80253;SDS011;69563;37.974;23.708;2023-05-10T04:32:43;7.05;;;2.00;;
80253;SDS011;69563;37.974;23.708;2023-05-10T04:35:09;9.65;;;2.00;;
80253;SDS011;69563;37.974;23.708;2023-05-10T04:37:35;5.97;;;1.65;;
80253;SDS011;69563;37.974;23.708;2023-05-10T04:40:01;8.93;;;1.98;;
80253;SDS011;69563;37.974;23.708;2023-05-10T04:42:28;8.00;;;1.73;;
80253;SDS011;69563;37.974;23.708;2023-05-10T04:44:54;7.60;;;2.30;;
80253;SDS011;69563;37.974;23.708;2023-05-10T04:47:19;7.13;;;1.90;;
80253;SDS011;69563;37.974;23.708;2023-05-10T04:49:45;6.78;;;1.92;;
80253;SDS011;69563;37.974;23.708;2023-05-10T04:52:11;6.13;;;1.88;;
80253;SDS011;69563;37.974;23.708;2023-05-10T04:54:36;7.97;;;2.13;;
80253;SDS011;69563;37.974;23.708;2023-05-10T04:57:02;5.72;;;1.73;;
80253;SDS011;69563;37.974;23.708;2023-05-10T04:59:28;6.20;;;2.15;;
80253;SDS011;69563;37.974;23.708;2023-05-10T05:01:54;4.32;;;1.75;;
80253;SDS011;69563;37.974;23.708;2023-05-10T05:04:20;6.72;;;1.80;;
80253;SDS011;69563;37.974;23.708;2023-05-10T05:06:47;5.82;;;1.75;;
80253;SDS011;69563;37.974;23.708;2023-05-10T05:09:13;7.35;;;2.00;;
80253;SDS011;69563;37.974;23.708;2023-05-10T05:11:39;6.15;;;1.95;;
80253;SDS011;69563;37.974;23.708;2023-05-10T05:14:05;5.82;;;1.95;;
80253;SDS011;69563;37.974;23.708;2023-05-10T05:16:31;5.57;;;1.98;;
80253;SDS011;69563;37.974;23.708;2023-05-10T05:18:57;6.22;;;1.88;;
80253;SDS011;69563;37.974;23.708;2023-05-10T05:21:22;5.70;;;1.63;;
80253;SDS011;69563;37.974;23.708;2023-05-10T05:23:50;4.90;;;1.70;;
80253;SDS011;69563;37.974;23.708;2023-05-10T05:26:15;5.57;;;1.77;;
80253;SDS011;69563;37.974;23.708;2023-05-10T05:28:41;5.30;;;1.95;;
80253;SDS011;69563;37.974;23.708;2023-05-10T05:31:07;4.85;;;1.88;;
80253;SDS011;69563;37.974;23.708;2023-05-10T05:33:33;5.88;;;1.70;;
80253;SDS011;69563;37.974;23.708;2023-05-10T05:36:03;3.72;;;1.73;;
80253;SDS011;69563;37.974;23.708;2023-05-10T05:38:30;4.28;;;1.60;;
80253;SDS011;69563;37.974;23.708;2023-05-10T05:40:56;2.88;;;1.50;;
80253;SDS011;69563;37.974;23.708;2023-05-10T05:43:22;3.40;;;1.60;;
80253;SDS011;69563;37.974;23.708;2023-05-10T05:45:48;3.80;;;1.77;;
80253;SDS011;69563;37.974;23.708;2023-05-10T05:48:13;3.55;;;1.40;;
80253;SDS011;69563;37.974;23.708;2023-05-10T05:50:39;4.53;;;1.60;;
80253;SDS011;69563;37.974;23.708;2023-05-10T05:53:05;3.92;;;1.42;;
80253;SDS011;69563;37.974;23.708;2023-05-10T05:55:30;4.10;;;1.58;;
80253;SDS011;69563;37.974;23.708;2023-05-10T05:57:56;3.70;;;1.45;;
80253;SDS011;69563;37.974;23.708;2023-05-10T06:00:23;4.25;;;1.65;;
80253;SDS011;69563;37.974;23.708;2023-05-10T06:02:49;4.00;;;1.60;;
80253;SDS011;69563;37.974;23.708;2023-05-10T06:05:14;4.82;;;1.70;;
80253;SDS011;69563;37.974;23.708;2023-05-10T06:07:40;4.50;;;1.70;;
80253;SDS011;69563;37.974;23.708;2023-05-10T06:10:07;4.72;;;1.60;;
80253;SDS011;69563;37.974;23.708;2023-05-10T06:12:34;3.65;;;1.52;;
80253;SDS011;69563;37.974;23.708;2023-05-10T06:15:00;3.28;;;1.30;;
80253;SDS011;69563;37.974;23.708;2023-05-10T06:17:25;3.60;;;1.73;;
80253;SDS011;69563;37.974;23.708;2023-05-10T06:19:51;3.83;;;1.52;;
80253;SDS011;69563;37.974;23.708;2023-05-10T06:22:17;4.60;;;1.70;;
80253;SDS011;69563;37.974;23.708;2023-05-10T06:24:42;4.32;;;1.33;;
80253;SDS011;69563;37.974;23.708;2023-05-10T06:27:08;4.50;;;1.40;;
80253;SDS011;69563;37.974;23.708;2023-05-10T06:29:34;3.67;;;1.77;;
80253;SDS011;69563;37.974;23.708;2023-05-10T06:31:59;4.82;;;1.80;;
80253;SDS011;69563;37.974;23.708;2023-05-10T06:34:25;4.60;;;1.70;;
80253;SDS011;69563;37.974;23.708;2023-05-10T06:36:51;4.60;;;1.80;;
80253;SDS011;69563;37.974;23.708;2023-05-10T06:39:16;4.05;;;1.70;;
80253;SDS011;69563;37.974;23.708;2023-05-10T06:41:42;3.38;;;1.48;;
80253;SDS011;69563;37.974;23.708;2023-05-10T06:44:08;5.10;;;1.73;;
80253;SDS011;69563;37.974;23.708;2023-05-10T06:46:34;3.45;;;1.45;;
80253;SDS011;69563;37.974;23.708;2023-05-10T06:49:00;3.55;;;1.58;;
80253;SDS011;69563;37.974;23.708;2023-05-10T06:51:25;4.30;;;1.77;;
80253;SDS011;69563;37.974;23.708;2023-05-10T06:53:51;5.20;;;1.80;;
80253;SDS011;69563;37.974;23.708;2023-05-10T06:56:17;4.07;;;1.60;;
80253;SDS011;69563;37.974;23.708;2023-05-10T06:58:46;5.18;;;1.67;;
80253;SDS011;69563;37.974;23.708;2023-05-10T07:01:12;3.17;;;1.50;;
80253;SDS011;69563;37.974;23.708;2023-05-10T07:03:38;5.25;;;1.80;;
80253;SDS011;69563;37.974;23.708;2023-05-10T07:06:04;3.25;;;1.55;;
80253;SDS011;69563;37.974;23.708;2023-05-10T07:08:31;3.97;;;1.58;;
80253;SDS011;69563;37.974;23.708;2023-05-10T07:11:01;4.85;;;1.40;;
80253;SDS011;69563;37.974;23.708;2023-05-10T07:13:28;4.53;;;1.50;;
80253;SDS011;69563;37.974;23.708;2023-05-10T07:15:55;4.78;;;1.70;;
80253;SDS011;69563;37.974;23.708;2023-05-10T07:18:21;5.10;;;1.80;;
80253;SDS011;69563;37.974;23.708;2023-05-10T07:20:46;4.68;;;1.70;;
80253;SDS011;69563;37.974;23.708;2023-05-10T07:23:12;3.72;;;1.60;;
80253;SDS011;69563;37.974;23.708;2023-05-10T07:25:38;3.83;;;1.75;;
80253;SDS011;69563;37.974;23.708;2023-05-10T07:28:04;4.85;;;1.90;;
80253;SDS011;69563;37.974;23.708;2023-05-10T07:30:29;3.95;;;1.73;;
80253;SDS011;69563;37.974;23.708;2023-05-10T07:32:56;5.07;;;1.80;;
80253;SDS011;69563;37.974;23.708;2023-05-10T07:35:22;4.35;;;1.73;;
80253;SDS011;69563;37.974;23.708;2023-05-10T07:37:47;4.18;;;2.00;;
80253;SDS011;69563;37.974;23.708;2023-05-10T07:40:13;4.47;;;1.80;;
80253;SDS011;69563;37.974;23.708;2023-05-10T07:42:39;2.75;;;1.58;;
80253;SDS011;69563;37.974;23.708;2023-05-10T07:45:05;5.00;;;1.90;;
80253;SDS011;69563;37.974;23.708;2023-05-10T07:47:31;5.45;;;1.80;;
80253;SDS011;69563;37.974;23.708;2023-05-10T07:49:57;4.35;;;1.70;;
80253;SDS011;69563;37.974;23.708;2023-05-10T07:52:22;5.47;;;1.75;;
80253;SDS011;69563;37.974;23.708;2023-05-10T07:54:48;4.03;;;1.77;;
80253;SDS011;69563;37.974;23.708;2023-05-10T07:57:14;5.60;;;2.08;;
80253;SDS011;69563;37.974;23.708;2023-05-10T07:59:42;5.85;;;1.92;;
80253;SDS011;69563;37.974;23.708;2023-05-10T08:02:09;4.53;;;1.80;;
80253;SDS011;69563;37.974;23.708;2023-05-10T08:04:34;3.88;;;1.70;;
80253;SDS011;69563;37.974;23.708;2023-05-10T08:07:00;3.47;;;1.80;;
80253;SDS011;69563;37.974;23.708;2023-05-10T08:09:26;3.90;;;1.85;;
80253;SDS011;69563;37.974;23.708;2023-05-10T08:11:51;4.07;;;1.60;;
80253;SDS011;69563;37.974;23.708;2023-05-10T08:14:17;4.10;;;1.75;;
80253;SDS011;69563;37.974;23.708;2023-05-10T08:16:43;3.92;;;1.75;;
80253;SDS011;69563;37.974;23.708;2023-05-10T08:19:08;4.88;;;2.10;;
80253;SDS011;69563;37.974;23.708;2023-05-10T08:21:34;5.97;;;2.10;;
80253;SDS011;69563;37.974;23.708;2023-05-10T08:24:01;4.78;;;1.90;;
80253;SDS011;69563;37.974;23.708;2023-05-10T08:26:27;5.32;;;1.90;;
80253;SDS011;69563;37.974;23.708;2023-05-10T08:28:52;4.35;;;1.80;;
80253;SDS011;69563;37.974;23.708;2023-05-10T08:31:18;4.00;;;1.85;;
80253;SDS011;69563;37.974;23.708;2023-05-10T08:33:44;5.70;;;2.00;;
80253;SDS011;69563;37.974;23.708;2023-05-10T08:36:09;5.28;;;1.98;;
80253;SDS011;69563;37.974;23.708;2023-05-10T08:38:35;5.38;;;1.98;;
80253;SDS011;69563;37.974;23.708;2023-05-10T08:41:02;4.13;;;1.70;;
80253;SDS011;69563;37.974;23.708;2023-05-10T08:43:29;4.43;;;1.80;;
80253;SDS011;69563;37.974;23.708;2023-05-10T08:45:55;4.45;;;1.88;;
80253;SDS011;69563;37.974;23.708;2023-05-10T08:48:22;5.50;;;2.00;;
80253;SDS011;69563;37.974;23.708;2023-05-10T08:50:49;5.63;;;1.85;;
80253;SDS011;69563;37.974;23.708;2023-05-10T08:53:21;4.90;;;1.60;;
80253;SDS011;69563;37.974;23.708;2023-05-10T08:55:50;3.20;;;1.60;;
80253;SDS011;69563;37.974;23.708;2023-05-10T08:58:16;4.05;;;1.77;;
80253;SDS011;69563;37.974;23.708;2023-05-10T09:00:44;4.68;;;1.80;;
80253;SDS011;69563;37.974;23.708;2023-05-10T09:03:10;3.78;;;1.90;;
80253;SDS011;69563;37.974;23.708;2023-05-10T09:05:37;5.35;;;1.80;;
80253;SDS011;69563;37.974;23.708;2023-05-10T09:08:03;4.60;;;1.83;;
80253;SDS011;69563;37.974;23.708;2023-05-10T09:10:29;3.60;;;1.98;;
80253;SDS011;69563;37.974;23.708;2023-05-10T09:12:56;4.93;;;1.70;;
80253;SDS011;69563;37.974;23.708;2023-05-10T09:15:22;4.43;;;1.90;;
80253;SDS011;69563;37.974;23.708;2023-05-10T09:17:48;4.75;;;1.70;;
80253;SDS011;69563;37.974;23.708;2023-05-10T09:20:14;3.95;;;1.90;;
80253;SDS011;69563;37.974;23.708;2023-05-10T09:22:42;4.43;;;1.90;;
80253;SDS011;69563;37.974;23.708;2023-05-10T09:25:12;4.50;;;1.77;;
80253;SDS011;69563;37.974;23.708;2023-05-10T09:27:43;6.78;;;1.52;;
80253;SDS011;69563;37.974;23.708;2023-05-10T09:30:10;2.70;;;1.52;;
80253;SDS011;69563;37.974;23.708;2023-05-10T09:32:44;4.03;;;1.58;;
80253;SDS011;69563;37.974;23.708;2023-05-10T09:35:11;4.57;;;1.90;;
80253;SDS011;69563;37.974;23.708;2023-05-10T09:37:45;5.57;;;1.98;;
80253;SDS011;69563;37.974;23.708;2023-05-10T09:40:19;5.28;;;1.63;;
80253;SDS011;69563;37.974;23.708;2023-05-10T09:45:18;5.80;;;1.75;;
80253;SDS011;69563;37.974;23.708;2023-05-10T09:47:45;4.20;;;1.63;;
80253;SDS011;69563;37.974;23.708;2023-05-10T09:50:11;3.35;;;1.70;;
80253;SDS011;69563;37.974;23.708;2023-05-10T09:55:22;5.10;;;2.00;;
80253;SDS011;69563;37.974;23.708;2023-05-10T09:57:50;6.00;;;1.65;;
80253;SDS011;69563;37.974;23.708;2023-05-10T10:00:24;4.10;;;1.80;;
80253;SDS011;69563;37.974;23.708;2023-05-10T10:02:55;3.58;;;1.60;;
80253;SDS011;69563;37.974;23.708;2023-05-10T10:05:28;3.58;;;1.58;;
80253;SDS011;69563;37.974;23.708;2023-05-10T10:07:58;4.82;;;1.67;;
80253;SDS011;69563;37.974;23.708;2023-05-10T10:10:27;3.03;;;1.50;;
80253;SDS011;69563;37.974;23.708;2023-05-10T10:12:54;6.30;;;1.70;;
80253;SDS011;69563;37.974;23.708;2023-05-10T10:15:20;3.30;;;1.45;;
80253;SDS011;69563;37.974;23.708;2023-05-10T10:17:48;4.18;;;1.48;;
80253;SDS011;69563;37.974;23.708;2023-05-10T10:20:14;4.80;;;1.58;;
80253;SDS011;69563;37.974;23.708;2023-05-10T10:22:41;5.35;;;1.65;;
80253;SDS011;69563;37.974;23.708;2023-05-10T10:25:09;4.15;;;1.73;;
80253;SDS011;69563;37.974;23.708;2023-05-10T10:36:06;4.80;;;1.45;;
80253;SDS011;69563;37.974;23.708;2023-05-10T10:38:36;4.15;;;1.70;;
80253;SDS011;69563;37.974;23.708;2023-05-10T10:55:03;3.70;;;1.42;;
80253;SDS011;69563;37.974;23.708;2023-05-10T11:02:51;4.43;;;1.83;;
80253;SDS011;69563;37.974;23.708;2023-05-10T11:07:58;4.18;;;1.75;;
80253;SDS011;69563;37.974;23.708;2023-05-10T11:10:25;3.72;;;1.50;;
80253;SDS011;69563;37.974;23.708;2023-05-10T11:13:01;4.55;;;1.50;;
80253;SDS011;69563;37.974;23.708;2023-05-10T11:15:33;5.03;;;1.52;;
80253;SDS011;69563;37.974;23.708;2023-05-10T11:18:16;4.35;;;1.50;;
80253;SDS011;69563;37.974;23.708;2023-05-10T11:20:44;3.38;;;1.70;;
80253;SDS011;69563;37.974;23.708;2023-05-10T11:23:14;4.72;;;1.60;;
80253;SDS011;69563;37.974;23.708;2023-05-10T11:25:42;3.35;;;1.60;;
80253;SDS011;69563;37.974;23.708;2023-05-10T11:28:09;3.75;;;1.70;;
80253;SDS011;69563;37.974;23.708;2023-05-10T11:30:36;4.88;;;1.77;;
80253;SDS011;69563;37.974;23.708;2023-05-10T11:33:03;3.58;;;1.67;;
80253;SDS011;69563;37.974;23.708;2023-05-10T11:35:28;5.00;;;1.77;;
80253;SDS011;69563;37.974;23.708;2023-05-10T11:37:54;4.47;;;1.73;;
80253;SDS011;69563;37.974;23.708;2023-05-10T11:40:23;4.78;;;1.80;;
80253;SDS011;69563;37.974;23.708;2023-05-10T11:42:49;3.92;;;1.52;;
80253;SDS011;69563;37.974;23.708;2023-05-10T11:45:15;3.08;;;1.67;;
80253;SDS011;69563;37.974;23.708;2023-05-10T11:47:41;3.08;;;1.50;;
80253;SDS011;69563;37.974;23.708;2023-05-10T11:50:08;3.55;;;1.70;;
80253;SDS011;69563;37.974;23.708;2023-05-10T11:52:36;3.40;;;1.60;;
80253;SDS011;69563;37.974;23.708;2023-05-10T11:55:05;5.00;;;1.67;;
80253;SDS011;69563;37.974;23.708;2023-05-10T11:57:31;3.65;;;1.63;;
80253;SDS011;69563;37.974;23.708;2023-05-10T11:59:57;2.85;;;1.60;;
80253;SDS011;69563;37.974;23.708;2023-05-10T12:02:23;3.80;;;1.45;;
80253;SDS011;69563;37.974;23.708;2023-05-10T12:04:49;3.00;;;1.58;;
80253;SDS011;69563;37.974;23.708;2023-05-10T12:07:16;3.30;;;1.67;;
80253;SDS011;69563;37.974;23.708;2023-05-10T12:09:43;4.63;;;1.67;;
80253;SDS011;69563;37.974;23.708;2023-05-10T12:12:09;3.20;;;1.60;;
80253;SDS011;69563;37.974;23.708;2023-05-10T12:14:40;4.50;;;1.77;;
80253;SDS011;69563;37.974;23.708;2023-05-10T12:17:06;4.22;;;1.80;;
80253;SDS011;69563;37.974;23.708;2023-05-10T12:19:36;3.85;;;1.77;;
80253;SDS011;69563;37.974;23.708;2023-05-10T12:22:04;6.10;;;1.70;;
80253;SDS011;69563;37.974;23.708;2023-05-10T12:24:30;5.00;;;1.83;;
80253;SDS011;69563;37.974;23.708;2023-05-10T12:26:59;3.60;;;1.60;;
80253;SDS011;69563;37.974;23.708;2023-05-10T12:29:29;4.63;;;1.75;;
80253;SDS011;69563;37.974;23.708;2023-05-10T12:31:56;4.97;;;1.60;;
80253;SDS011;69563;37.974;23.708;2023-05-10T12:34:41;5.03;;;1.60;;
80253;SDS011;69563;37.974;23.708;2023-05-10T12:37:07;3.53;;;1.55;;
80253;SDS011;69563;37.974;23.708;2023-05-10T12:39:39;3.22;;;1.60;;
80253;SDS011;69563;37.974;23.708;2023-05-10T12:42:06;6.13;;;1.95;;
80253;SDS011;69563;37.974;23.708;2023-05-10T12:44:32;3.53;;;1.80;;
80253;SDS011;69563;37.974;23.708;2023-05-10T12:46:58;5.55;;;1.60;;
80253;SDS011;69563;37.974;23.708;2023-05-10T12:49:24;2.80;;;1.70;;
80253;SDS011;69563;37.974;23.708;2023-05-10T12:51:49;3.63;;;1.70;;
80253;SDS011;69563;37.974;23.708;2023-05-10T12:54:15;3.30;;;1.60;;
80253;SDS011;69563;37.974;23.708;2023-05-10T12:56:41;3.38;;;1.60;;
80253;SDS011;69563;37.974;23.708;2023-05-10T12:59:07;3.88;;;1.48;;
80253;SDS011;69563;37.974;23.708;2023-05-10T13:01:33;4.30;;;1.60;;
80253;SDS011;69563;37.974;23.708;2023-05-10T13:03:59;3.13;;;1.50;;
80253;SDS011;69563;37.974;23.708;2023-05-10T13:06:25;3.15;;;1.48;;
80253;SDS011;69563;37.974;23.708;2023-05-10T13:08:51;3.13;;;1.50;;
80253;SDS011;69563;37.974;23.708;2023-05-10T13:11:17;4.05;;;1.60;;
80253;SDS011;69563;37.974;23.708;2023-05-10T13:13:44;3.88;;;1.67;;
80253;SDS011;69563;37.974;23.708;2023-05-10T13:16:10;4.03;;;1.70;;
80253;SDS011;69563;37.974;23.708;2023-05-10T13:18:36;3.67;;;1.60;;
80253;SDS011;69563;37.974;23.708;2023-05-10T13:21:01;4.93;;;1.77;;
80253;SDS011;69563;37.974;23.708;2023-05-10T13:23:30;5.30;;;1.90;;
80253;SDS011;69563;37.974;23.708;2023-05-10T13:25:56;3.67;;;1.48;;
80253;SDS011;69563;37.974;23.708;2023-05-10T13:28:22;3.22;;;1.60;;
80253;SDS011;69563;37.974;23.708;2023-05-10T13:30:48;3.83;;;1.45;;
80253;SDS011;69563;37.974;23.708;2023-05-10T13:33:13;4.65;;;1.77;;
80253;SDS011;69563;37.974;23.708;2023-05-10T13:35:39;2.97;;;1.40;;
80253;SDS011;69563;37.974;23.708;2023-05-10T13:38:05;2.95;;;1.60;;
80253;SDS011;69563;37.974;23.708;2023-05-10T13:40:32;3.20;;;1.60;;
80253;SDS011;69563;37.974;23.708;2023-05-10T13:42:58;4.05;;;1.80;;
80253;SDS011;69563;37.974;23.708;2023-05-10T13:45:24;3.30;;;1.52;;
80253;SDS011;69563;37.974;23.708;2023-05-10T13:47:50;2.97;;;1.65;;
80253;SDS011;69563;37.974;23.708;2023-05-10T13:50:16;3.78;;;1.67;;
80253;SDS011;69563;37.974;23.708;2023-05-10T13:52:41;6.50;;;2.58;;
80253;SDS011;69563;37.974;23.708;2023-05-10T13:55:07;5.90;;;3.10;;
80253;SDS011;69563;37.974;23.708;2023-05-10T13:57:33;8.80;;;5.65;;
80253;SDS011;69563;37.974;23.708;2023-05-10T14:00:00;15.05;;;7.53;;
80253;SDS011;69563;37.974;23.708;2023-05-10T14:02:26;15.65;;;11.65;;
80253;SDS011;69563;37.974;23.708;2023-05-10T14:04:52;18.48;;;13.98;;
80253;SDS011;69563;37.974;23.708;2023-05-10T14:07:18;20.02;;;16.13;;
80253;SDS011;69563;37.974;23.708;2023-05-10T14:09:44;26.20;;;21.10;;
80253;SDS011;69563;37.974;23.708;2023-05-10T14:12:09;22.15;;;18.60;;
80253;SDS011;69563;37.974;23.708;2023-05-10T14:14:35;22.33;;;18.33;;
80253;SDS011;69563;37.974;23.708;2023-05-10T14:17:01;21.35;;;17.42;;
80253;SDS011;69563;37.974;23.708;2023-05-10T14:19:26;21.05;;;17.60;;
80253;SDS011;69563;37.974;23.708;2023-05-10T14:21:52;18.48;;;14.85;;
80253;SDS011;69563;37.974;23.708;2023-05-10T14:24:18;18.50;;;14.05;;
80253;SDS011;69563;37.974;23.708;2023-05-10T14:26:44;15.52;;;11.98;;
80253;SDS011;69563;37.974;23.708;2023-05-10T14:29:09;14.82;;;10.70;;
80253;SDS011;69563;37.974;23.708;2023-05-10T14:31:35;13.30;;;10.40;;
80253;SDS011;69563;37.974;23.708;2023-05-10T14:34:01;13.73;;;9.70;;
80253;SDS011;69563;37.974;23.708;2023-05-10T14:36:27;10.60;;;8.27;;
80253;SDS011;69563;37.974;23.708;2023-05-10T14:38:54;9.80;;;7.30;;
80253;SDS011;69563;37.974;23.708;2023-05-10T14:41:19;9.25;;;6.55;;
80253;SDS011;69563;37.974;23.708;2023-05-10T14:43:45;8.52;;;6.10;;
80253;SDS011;69563;37.974;23.708;2023-05-10T14:46:11;7.78;;;5.38;;
80253;SDS011;69563;37.974;23.708;2023-05-10T14:48:37;8.98;;;4.85;;
80253;SDS011;69563;37.974;23.708;2023-05-10T14:51:02;10.52;;;5.30;;
80253;SDS011;69563;37.974;23.708;2023-05-10T14:53:28;7.63;;;4.38;;
80253;SDS011;69563;37.974;23.708;2023-05-10T14:55:54;7.25;;;4.30;;
80253;SDS011;69563;37.974;23.708;2023-05-10T14:58:20;7.03;;;4.03;;
80253;SDS011;69563;37.974;23.708;2023-05-10T15:00:45;5.10;;;3.45;;
80253;SDS011;69563;37.974;23.708;2023-05-10T15:03:11;6.68;;;3.50;;
80253;SDS011;69563;37.974;23.708;2023-05-10T15:05:37;5.97;;;3.50;;
80253;SDS011;69563;37.974;23.708;2023-05-10T15:08:02;6.80;;;3.30;;
80253;SDS011;69563;37.974;23.708;2023-05-10T15:10:29;5.13;;;3.03;;
80253;SDS011;69563;37.974;23.708;2023-05-10T15:12:55;5.15;;;2.97;;
80253;SDS011;69563;37.974;23.708;2023-05-10T15:15:21;5.65;;;3.05;;
80253;SDS011;69563;37.974;23.708;2023-05-10T15:17:47;5.22;;;2.70;;
80253;SDS011;69563;37.974;23.708;2023-05-10T15:20:13;5.72;;;2.90;;
80253;SDS011;69563;37.974;23.708;2023-05-10T15:22:40;5.10;;;2.83;;
80253;SDS011;69563;37.974;23.708;2023-05-10T15:25:06;7.13;;;2.90;;
80253;SDS011;69563;37.974;23.708;2023-05-10T15:27:32;4.60;;;2.90;;